createdAt,value
2017-11-18T00:00:21.157Z,0
2017-11-18T00:01:21.769Z,0
2017-11-18T00:02:22.354Z,0
2017-11-18T00:03:22.952Z,0
2017-11-18T00:04:23.553Z,0
2017-11-18T00:05:24.149Z,0
2017-11-18T00:06:24.750Z,0
2017-11-18T00:07:25.345Z,0
2017-11-18T00:08:25.944Z,0
2017-11-18T00:09:26.551Z,0
2017-11-18T00:10:27.161Z,0
2017-11-18T00:11:27.744Z,0
2017-11-18T00:12:28.345Z,0
2017-11-18T00:13:28.944Z,0
2017-11-18T00:14:29.542Z,0
2017-11-18T00:15:30.145Z,0
2017-11-18T00:16:30.749Z,0
2017-11-18T00:17:31.353Z,0
2017-11-18T00:18:31.966Z,0
2017-11-18T00:19:32.551Z,0
2017-11-18T00:20:33.147Z,0
2017-11-18T00:21:33.740Z,0
2017-11-18T00:22:34.341Z,0
2017-11-18T00:23:34.934Z,0
2017-11-18T00:24:35.537Z,0
2017-11-18T00:25:36.140Z,0
2017-11-18T00:26:36.735Z,0
2017-11-18T00:27:37.335Z,0
2017-11-18T00:28:37.941Z,0
2017-11-18T00:29:38.535Z,0
2017-11-18T00:30:39.116Z,0
2017-11-18T00:31:39.718Z,0
2017-11-18T00:32:40.323Z,0
2017-11-18T00:33:40.919Z,0
2017-11-18T00:34:41.521Z,0
2017-11-18T00:35:42.122Z,0
2017-11-18T00:36:42.719Z,0
2017-11-18T00:37:43.312Z,0
2017-11-18T00:38:43.899Z,0
2017-11-18T00:39:44.506Z,0
2017-11-18T00:40:45.093Z,0
2017-11-18T00:41:45.697Z,0
2017-11-18T00:42:46.296Z,0
2017-11-18T00:43:46.890Z,0
2017-11-18T00:44:47.516Z,0
2017-11-18T00:45:48.092Z,0
2017-11-18T00:46:48.699Z,0
2017-11-18T00:47:49.291Z,0
2017-11-18T00:48:49.882Z,0
2017-11-18T00:49:50.486Z,0
2017-11-18T00:50:51.087Z,0
2017-11-18T00:51:51.703Z,0
2017-11-18T00:52:52.284Z,0
2017-11-18T00:53:52.870Z,0
2017-11-18T00:54:53.471Z,0
2017-11-18T00:55:54.056Z,0
2017-11-18T00:56:54.654Z,0
2017-11-18T00:57:55.257Z,0
2017-11-18T00:58:55.851Z,0
2017-11-18T00:59:56.497Z,0
2017-11-18T01:00:57.065Z,0
2017-11-18T01:01:57.667Z,0
2017-11-18T01:02:58.267Z,0
2017-11-18T01:03:58.877Z,0
2017-11-18T01:04:59.470Z,0
2017-11-18T01:06:00.063Z,0
2017-11-18T01:07:00.652Z,0
2017-11-18T01:08:01.258Z,0
2017-11-18T01:09:01.838Z,0
2017-11-18T01:10:02.435Z,0
2017-11-18T01:11:03.032Z,0
2017-11-18T01:12:03.631Z,0
2017-11-18T01:13:04.234Z,0
2017-11-18T01:14:04.831Z,0
2017-11-18T01:15:05.418Z,0
2017-11-18T01:16:06.027Z,0
2017-11-18T01:17:06.613Z,0
2017-11-18T01:18:07.219Z,0
2017-11-18T01:19:07.803Z,0
2017-11-18T01:20:08.402Z,0
2017-11-18T01:21:09.010Z,0
2017-11-18T01:22:09.595Z,0
2017-11-18T01:23:10.201Z,0
2017-11-18T01:24:10.790Z,0
2017-11-18T01:25:11.386Z,0
2017-11-18T01:26:11.975Z,0
2017-11-18T01:27:12.572Z,0
2017-11-18T01:28:13.175Z,0
2017-11-18T01:29:13.767Z,0
2017-11-18T01:30:14.362Z,0
2017-11-18T01:31:14.952Z,0
2017-11-18T01:32:15.572Z,0
2017-11-18T01:33:16.149Z,0
2017-11-18T01:34:16.743Z,0
2017-11-18T01:35:17.349Z,0
2017-11-18T01:36:17.952Z,0
2017-11-18T01:37:18.555Z,0
2017-11-18T01:38:19.162Z,0
2017-11-18T01:39:19.754Z,0
2017-11-18T01:40:20.350Z,0
2017-11-18T01:41:20.949Z,0
2017-11-18T01:42:21.540Z,0
2017-11-18T01:43:22.140Z,0
2017-11-18T01:44:22.729Z,0
2017-11-18T01:45:23.318Z,0
2017-11-18T01:46:23.913Z,0
2017-11-18T01:47:24.521Z,0
2017-11-18T01:48:25.108Z,0
2017-11-18T01:49:25.710Z,0
2017-11-18T01:50:26.306Z,0
2017-11-18T01:51:26.888Z,0
2017-11-18T01:52:27.485Z,0
2017-11-18T01:53:28.079Z,0
2017-11-18T01:54:28.677Z,0
2017-11-18T01:55:29.275Z,0
2017-11-18T01:56:29.879Z,0
2017-11-18T01:57:30.483Z,0
2017-11-18T01:58:31.062Z,0
2017-11-18T01:59:31.654Z,0
2017-11-18T02:00:32.257Z,0
2017-11-18T02:01:32.861Z,0
2017-11-18T02:02:33.465Z,0
2017-11-18T02:03:34.065Z,0
2017-11-18T02:04:34.667Z,0
2017-11-18T02:05:35.266Z,0
2017-11-18T02:06:35.874Z,0
2017-11-18T02:07:36.474Z,0
2017-11-18T02:08:37.065Z,0
2017-11-18T02:09:37.667Z,0
2017-11-18T02:10:38.251Z,0
2017-11-18T02:11:38.853Z,0
2017-11-18T02:12:39.447Z,0
2017-11-18T02:13:40.051Z,0
2017-11-18T02:14:40.650Z,0
2017-11-18T02:15:41.256Z,0
2017-11-18T02:16:41.851Z,0
2017-11-18T02:17:42.436Z,0
2017-11-18T02:18:43.032Z,0
2017-11-18T02:19:43.633Z,0
2017-11-18T02:20:44.236Z,0
2017-11-18T02:21:44.827Z,0
2017-11-18T02:22:45.429Z,0
2017-11-18T02:23:46.034Z,0
2017-11-18T02:24:46.639Z,0
2017-11-18T02:25:47.238Z,0
2017-11-18T02:26:47.825Z,0
2017-11-18T02:27:48.423Z,0
2017-11-18T02:28:49.022Z,0
2017-11-18T02:29:49.628Z,0
2017-11-18T02:30:50.245Z,0
2017-11-18T02:31:50.839Z,0
2017-11-18T02:32:51.430Z,0
2017-11-18T02:33:52.026Z,0
2017-11-18T02:34:52.640Z,0
2017-11-18T02:35:53.232Z,0
2017-11-18T02:36:53.836Z,0
2017-11-18T02:37:54.429Z,0
2017-11-18T02:38:55.029Z,0
2017-11-18T02:39:55.628Z,0
2017-11-18T02:40:56.217Z,0
2017-11-18T02:41:56.817Z,0
2017-11-18T02:42:57.453Z,0
2017-11-18T02:43:58.013Z,0
2017-11-18T02:44:58.604Z,0
2017-11-18T02:45:59.209Z,0
2017-11-18T02:46:59.804Z,0
2017-11-18T02:48:00.397Z,0
2017-11-18T02:49:00.989Z,0
2017-11-18T02:50:01.578Z,0
2017-11-18T02:51:02.171Z,0
2017-11-18T02:52:02.756Z,0
2017-11-18T02:53:03.365Z,0
2017-11-18T02:54:03.957Z,0
2017-11-18T02:55:04.564Z,0
2017-11-18T02:56:05.168Z,0
2017-11-18T02:57:05.764Z,0
2017-11-18T02:58:06.362Z,0
2017-11-18T02:59:06.960Z,0
2017-11-18T03:00:07.588Z,0
2017-11-18T03:01:08.157Z,0
2017-11-18T03:02:08.756Z,0
2017-11-18T03:03:09.345Z,0
2017-11-18T03:04:09.947Z,0
2017-11-18T03:05:10.553Z,0
2017-11-18T03:06:11.149Z,0
2017-11-18T03:07:11.750Z,0
2017-11-18T03:08:12.342Z,0
2017-11-18T03:09:12.966Z,0
2017-11-18T03:10:13.538Z,0
2017-11-18T03:11:14.146Z,0
2017-11-18T03:12:14.746Z,0
2017-11-18T03:13:15.338Z,0
2017-11-18T03:14:15.928Z,0
2017-11-18T03:15:16.528Z,0
2017-11-18T03:16:17.118Z,0
2017-11-18T03:17:17.703Z,0
2017-11-18T03:18:18.290Z,0
2017-11-18T03:19:18.894Z,0
2017-11-18T03:20:19.486Z,0
2017-11-18T03:21:20.086Z,0
2017-11-18T03:22:20.688Z,0
2017-11-18T03:23:21.291Z,0
2017-11-18T03:24:21.889Z,0
2017-11-18T03:25:22.493Z,0
2017-11-18T03:26:23.080Z,0
2017-11-18T03:27:23.677Z,0
2017-11-18T03:28:24.281Z,0
2017-11-18T03:29:24.872Z,0
2017-11-18T03:30:25.474Z,0
2017-11-18T03:31:26.072Z,0
2017-11-18T03:32:26.676Z,0
2017-11-18T03:33:27.268Z,0
2017-11-18T03:34:27.869Z,0
2017-11-18T03:35:28.456Z,0
2017-11-18T03:36:29.053Z,0
2017-11-18T03:37:29.656Z,0
2017-11-18T03:38:30.257Z,0
2017-11-18T03:39:30.845Z,0
2017-11-18T03:40:31.448Z,0
2017-11-18T03:41:32.047Z,0
2017-11-18T03:42:32.646Z,0
2017-11-18T03:43:33.243Z,0
2017-11-18T03:44:33.846Z,0
2017-11-18T03:45:34.446Z,0
2017-11-18T03:46:35.049Z,0
2017-11-18T03:47:35.641Z,0
2017-11-18T03:48:36.238Z,0
2017-11-18T03:49:36.831Z,0
2017-11-18T03:50:37.421Z,0
2017-11-18T03:51:38.016Z,0
2017-11-18T03:52:38.620Z,0
2017-11-18T03:53:39.217Z,0
2017-11-18T03:54:39.812Z,0
2017-11-18T03:55:40.416Z,0
2017-11-18T03:56:41.014Z,0
2017-11-18T03:57:41.620Z,0
2017-11-18T03:58:42.202Z,0
2017-11-18T03:59:42.811Z,0
2017-11-18T04:00:43.410Z,0
2017-11-18T04:01:43.997Z,0
2017-11-18T04:02:44.583Z,0
2017-11-18T04:03:45.181Z,0
2017-11-18T04:04:45.795Z,0
2017-11-18T04:05:46.379Z,0
2017-11-18T04:06:46.977Z,0
2017-11-18T04:07:47.562Z,0
2017-11-18T04:08:48.166Z,0
2017-11-18T04:09:48.747Z,0
2017-11-18T04:10:49.337Z,0
2017-11-18T04:11:49.938Z,0
2017-11-18T04:12:50.530Z,0
2017-11-18T04:13:51.129Z,0
2017-11-18T04:14:51.736Z,0
2017-11-18T04:15:52.334Z,0
2017-11-18T04:16:52.941Z,0
2017-11-18T04:17:53.516Z,0
2017-11-18T04:18:54.114Z,0
2017-11-18T04:19:54.711Z,0
2017-11-18T04:20:55.310Z,0
2017-11-18T04:21:55.896Z,0
2017-11-18T04:22:56.506Z,0
2017-11-18T04:23:57.094Z,0
2017-11-18T04:24:57.712Z,0
2017-11-18T04:25:58.280Z,0
2017-11-18T04:26:58.902Z,0
2017-11-18T04:27:59.486Z,0
2017-11-18T04:29:00.089Z,0
2017-11-18T04:30:00.653Z,0
2017-11-18T04:31:01.255Z,0
2017-11-18T04:32:01.847Z,0
2017-11-18T04:33:02.445Z,0
2017-11-18T04:34:03.038Z,0
2017-11-18T04:35:03.638Z,0
2017-11-18T04:36:04.231Z,0
2017-11-18T04:37:04.822Z,0
2017-11-18T04:38:05.423Z,0
2017-11-18T04:39:06.028Z,0
2017-11-18T04:40:06.640Z,0
2017-11-18T04:41:07.229Z,0
2017-11-18T04:42:07.839Z,0
2017-11-18T04:43:08.425Z,0
2017-11-18T04:44:09.022Z,0
2017-11-18T04:45:09.619Z,0
2017-11-18T04:46:10.220Z,0
2017-11-18T04:47:10.824Z,0
2017-11-18T04:48:11.432Z,0
2017-11-18T04:49:12.028Z,0
2017-11-18T04:50:12.634Z,0
2017-11-18T04:51:13.232Z,0
2017-11-18T04:52:13.830Z,0
2017-11-18T04:53:14.427Z,0
2017-11-18T04:54:15.008Z,0
2017-11-18T04:55:15.622Z,0
2017-11-18T04:56:16.208Z,0
2017-11-18T04:57:16.809Z,0
2017-11-18T04:58:17.411Z,0
2017-11-18T04:59:18.002Z,0
2017-11-18T05:00:18.603Z,0
2017-11-18T05:01:19.200Z,0
2017-11-18T05:02:19.793Z,0
2017-11-18T05:03:20.388Z,0
2017-11-18T05:04:20.991Z,0
2017-11-18T05:05:21.592Z,0
2017-11-18T05:06:22.188Z,0
2017-11-18T05:07:22.784Z,0
2017-11-18T05:08:23.394Z,0
2017-11-18T05:09:23.978Z,0
2017-11-18T05:10:24.588Z,0
2017-11-18T05:11:25.193Z,0
2017-11-18T05:12:25.786Z,0
2017-11-18T05:13:26.378Z,0
2017-11-18T05:14:26.967Z,0
2017-11-18T05:15:27.588Z,0
2017-11-18T05:16:28.165Z,0
2017-11-18T05:17:28.769Z,0
2017-11-18T05:18:29.371Z,0
2017-11-18T05:19:29.963Z,0
2017-11-18T05:20:30.564Z,0
2017-11-18T05:21:31.165Z,0
2017-11-18T05:22:31.762Z,0
2017-11-18T05:23:32.352Z,0
2017-11-18T05:24:32.950Z,0
2017-11-18T05:25:33.537Z,0
2017-11-18T05:26:34.137Z,0
2017-11-18T05:27:34.743Z,0
2017-11-18T05:28:35.347Z,0
2017-11-18T05:29:35.944Z,0
2017-11-18T05:30:36.530Z,0
2017-11-18T05:31:37.123Z,0
2017-11-18T05:32:37.718Z,0
2017-11-18T05:33:38.315Z,0
2017-11-18T05:34:38.915Z,0
2017-11-18T05:35:39.508Z,0
2017-11-18T05:36:40.112Z,0
2017-11-18T05:37:40.697Z,0
2017-11-18T05:38:41.298Z,0
2017-11-18T05:39:41.892Z,0
2017-11-18T05:40:42.479Z,0
2017-11-18T05:41:43.079Z,0
2017-11-18T05:42:43.667Z,0
2017-11-18T05:43:44.275Z,0
2017-11-18T05:44:44.869Z,0
2017-11-18T05:45:45.464Z,0
2017-11-18T05:46:46.068Z,0
2017-11-18T05:47:46.677Z,0
2017-11-18T05:48:47.275Z,0
2017-11-18T05:49:47.868Z,0
2017-11-18T05:50:48.472Z,0
2017-11-18T05:51:49.068Z,0
2017-11-18T05:52:49.655Z,0
2017-11-18T05:53:50.256Z,0
2017-11-18T05:54:50.852Z,0
2017-11-18T05:55:51.452Z,0
2017-11-18T05:56:52.044Z,0
2017-11-18T05:57:52.636Z,0
2017-11-18T05:58:53.249Z,0
2017-11-18T05:59:53.829Z,0
2017-11-18T06:00:54.435Z,0
2017-11-18T06:01:55.038Z,0
2017-11-18T06:02:55.626Z,0
2017-11-18T06:03:56.226Z,0
2017-11-18T06:04:56.819Z,0
2017-11-18T06:05:57.424Z,0
2017-11-18T06:06:58.045Z,0
2017-11-18T06:07:58.620Z,0
2017-11-18T06:08:59.220Z,0
2017-11-18T06:09:59.828Z,0
2017-11-18T06:11:00.412Z,0
2017-11-18T06:12:01.012Z,0
2017-11-18T06:13:01.608Z,0
2017-11-18T06:14:02.203Z,0
2017-11-18T06:15:02.808Z,0
2017-11-18T06:16:03.404Z,0
2017-11-18T06:17:04.001Z,0
2017-11-18T06:18:04.610Z,0
2017-11-18T06:19:05.208Z,0
2017-11-18T06:20:05.805Z,0
2017-11-18T06:21:06.411Z,0
2017-11-18T06:22:07.016Z,0
2017-11-18T06:23:07.609Z,0
2017-11-18T06:24:08.199Z,0
2017-11-18T06:25:08.789Z,0
2017-11-18T06:26:09.382Z,0
2017-11-18T06:27:09.974Z,0
2017-11-18T06:28:10.576Z,0
2017-11-18T06:29:11.175Z,0
2017-11-18T06:30:11.767Z,0
2017-11-18T06:31:12.358Z,0
2017-11-18T06:32:12.950Z,0
2017-11-18T06:33:13.540Z,0
2017-11-18T06:34:14.144Z,0
2017-11-18T06:35:14.730Z,0
2017-11-18T06:36:15.326Z,0
2017-11-18T06:37:15.918Z,0
2017-11-18T06:38:16.513Z,0
2017-11-18T06:39:17.107Z,0
2017-11-18T06:40:17.710Z,0
2017-11-18T06:41:18.301Z,0
2017-11-18T06:42:18.901Z,0
2017-11-18T06:43:19.508Z,0
2017-11-18T06:44:20.113Z,0
2017-11-18T06:46:04.927Z,0
2017-11-18T06:47:05.530Z,0
2017-11-18T06:48:06.125Z,0
2017-11-18T06:49:06.759Z,0
2017-11-18T06:50:07.351Z,0
2017-11-18T06:51:07.958Z,0
2017-11-18T06:52:08.549Z,5
2017-11-18T06:53:09.141Z,5
2017-11-18T06:54:09.753Z,5
2017-11-18T06:55:10.368Z,5
2017-11-18T06:56:10.958Z,5
2017-11-18T06:57:11.585Z,5
2017-11-18T06:58:12.168Z,5
2017-11-18T06:59:12.758Z,5
2017-11-18T07:00:13.363Z,5
2017-11-18T07:01:13.982Z,5
2017-11-18T07:02:14.577Z,10
2017-11-18T07:03:15.181Z,10
2017-11-18T07:04:15.771Z,10
2017-11-18T07:05:16.378Z,10
2017-11-18T07:06:16.967Z,10
2017-11-18T07:07:17.569Z,10
2017-11-18T07:08:18.175Z,10
2017-11-18T07:09:18.792Z,10
2017-11-18T07:10:19.378Z,15
2017-11-18T07:11:19.974Z,15
2017-11-18T07:12:20.568Z,15
2017-11-18T07:13:21.181Z,15
2017-11-18T07:14:21.778Z,15
2017-11-18T07:15:22.361Z,15
2017-11-18T07:16:22.970Z,20
2017-11-18T07:17:23.565Z,20
2017-11-18T07:18:24.173Z,20
2017-11-18T07:19:24.770Z,20
2017-11-18T07:20:25.361Z,20
2017-11-18T07:21:25.960Z,20
2017-11-18T07:22:26.556Z,20
2017-11-18T07:23:27.153Z,20
2017-11-18T07:24:27.758Z,20
2017-11-18T07:25:28.370Z,25
2017-11-18T07:26:28.980Z,30
2017-11-18T07:27:29.590Z,30
2017-11-18T07:28:30.191Z,30
2017-11-18T07:29:30.788Z,35
2017-11-18T07:30:31.396Z,35
2017-11-18T07:31:31.997Z,35
2017-11-18T07:32:32.603Z,40
2017-11-18T07:33:33.199Z,40
2017-11-18T07:34:33.797Z,45
2017-11-18T07:35:34.406Z,45
2017-11-18T07:36:35.012Z,50
2017-11-18T07:37:35.640Z,50
2017-11-18T07:38:36.232Z,45
2017-11-18T07:39:36.840Z,50
2017-11-18T07:40:37.446Z,50
2017-11-18T07:41:38.053Z,55
2017-11-18T07:42:38.652Z,55
2017-11-18T07:43:39.256Z,55
2017-11-18T07:44:39.859Z,50
2017-11-18T07:45:40.453Z,55
2017-11-18T07:46:41.066Z,55
2017-11-18T07:47:41.674Z,60
2017-11-18T07:48:42.275Z,65
2017-11-18T07:49:42.903Z,65
2017-11-18T07:50:43.490Z,70
2017-11-18T07:51:44.090Z,75
2017-11-18T07:52:44.690Z,80
2017-11-18T07:53:45.289Z,80
2017-11-18T07:54:45.880Z,80
2017-11-18T07:55:46.479Z,80
2017-11-18T07:56:47.088Z,85
2017-11-18T07:57:47.682Z,90
2017-11-18T07:58:48.291Z,90
2017-11-18T07:59:48.887Z,90
2017-11-18T08:00:49.479Z,85
2017-11-18T08:01:50.081Z,95
2017-11-18T08:02:50.687Z,95
2017-11-18T08:03:51.288Z,100
2017-11-18T08:04:51.895Z,100
2017-11-18T08:05:52.505Z,100
2017-11-18T08:06:53.113Z,110
2017-11-18T08:07:53.716Z,120
2017-11-18T08:08:54.323Z,130
2017-11-18T08:09:54.912Z,130
2017-11-18T08:10:55.527Z,140
2017-11-18T08:11:56.123Z,145
2017-11-18T08:12:56.718Z,150
2017-11-18T08:13:57.318Z,155
2017-11-18T08:14:57.919Z,155
2017-11-18T08:15:58.516Z,150
2017-11-18T08:16:59.115Z,150
2017-11-18T08:17:59.719Z,155
2017-11-18T08:19:00.321Z,165
2017-11-18T08:20:00.919Z,165
2017-11-18T08:21:01.512Z,160
2017-11-18T08:22:02.116Z,155
2017-11-18T08:23:02.717Z,145
2017-11-18T08:24:03.322Z,150
2017-11-18T08:25:03.934Z,160
2017-11-18T08:26:04.545Z,160
2017-11-18T08:27:05.141Z,150
2017-11-18T08:28:05.745Z,145
2017-11-18T08:29:06.358Z,145
2017-11-18T08:30:06.957Z,155
2017-11-18T08:31:07.560Z,155
2017-11-18T08:32:08.179Z,150
2017-11-18T08:33:08.784Z,150
2017-11-18T08:34:09.389Z,165
2017-11-18T08:35:09.985Z,180
2017-11-18T08:36:10.579Z,190
2017-11-18T08:37:11.183Z,185
2017-11-18T08:38:11.779Z,180
2017-11-18T08:39:12.379Z,185
2017-11-18T08:40:13.048Z,185
2017-11-18T08:41:13.636Z,190
2017-11-18T08:42:14.217Z,190
2017-11-18T08:43:14.817Z,185
2017-11-18T08:44:15.424Z,180
2017-11-18T08:45:16.034Z,170
2017-11-18T08:46:16.628Z,150
2017-11-18T08:47:17.235Z,135
2017-11-18T08:48:17.848Z,135
2017-11-18T08:49:18.458Z,140
2017-11-18T08:50:19.071Z,140
2017-11-18T08:51:19.703Z,145
2017-11-18T08:52:20.278Z,155
2017-11-18T08:53:20.887Z,170
2017-11-18T08:54:21.497Z,175
2017-11-18T08:55:22.111Z,180
2017-11-18T08:56:22.706Z,190
2017-11-18T08:57:23.299Z,210
2017-11-18T08:58:23.899Z,235
2017-11-18T08:59:24.504Z,245
2017-11-18T09:00:25.117Z,245
2017-11-18T09:01:25.708Z,245
2017-11-18T09:02:26.324Z,240
2017-11-18T09:03:26.927Z,230
2017-11-18T09:04:27.524Z,220
2017-11-18T09:05:28.136Z,215
2017-11-18T09:06:28.735Z,215
2017-11-18T09:07:29.335Z,215
2017-11-18T09:08:29.945Z,215
2017-11-18T09:09:30.546Z,220
2017-11-18T09:10:31.154Z,220
2017-11-18T09:11:31.759Z,220
2017-11-18T09:12:32.356Z,215
2017-11-18T09:13:32.959Z,210
2017-11-18T09:14:33.562Z,210
2017-11-18T09:15:34.172Z,200
2017-11-18T09:16:34.767Z,195
2017-11-18T09:17:35.371Z,185
2017-11-18T09:18:35.977Z,185
2017-11-18T09:19:36.591Z,185
2017-11-18T09:20:37.197Z,180
2017-11-18T09:21:37.830Z,180
2017-11-18T09:22:38.427Z,180
2017-11-18T09:23:39.025Z,175
2017-11-18T09:24:39.615Z,175
2017-11-18T09:25:40.222Z,175
2017-11-18T09:26:40.831Z,175
2017-11-18T09:27:41.448Z,170
2017-11-18T09:28:42.076Z,165
2017-11-18T09:29:42.687Z,175
2017-11-18T09:30:43.278Z,190
2017-11-18T09:31:43.885Z,205
2017-11-18T09:32:44.495Z,195
2017-11-18T09:33:45.093Z,190
2017-11-18T09:34:45.696Z,180
2017-11-18T09:35:46.306Z,175
2017-11-18T09:36:46.932Z,170
2017-11-18T09:37:47.528Z,170
2017-11-18T09:38:48.157Z,165
2017-11-18T09:39:48.746Z,165
2017-11-18T09:40:49.345Z,160
2017-11-18T09:41:49.947Z,160
2017-11-18T09:42:50.542Z,155
2017-11-18T09:43:51.145Z,160
2017-11-18T09:44:51.741Z,160
2017-11-18T09:45:52.353Z,160
2017-11-18T09:46:52.965Z,160
2017-11-18T09:47:53.571Z,160
2017-11-18T09:48:54.176Z,160
2017-11-18T09:49:54.799Z,160
2017-11-18T09:50:55.397Z,160
2017-11-18T09:51:56.008Z,155
2017-11-18T09:52:56.619Z,150
2017-11-18T09:53:57.216Z,145
2017-11-18T09:54:57.815Z,145
2017-11-18T09:55:58.428Z,145
2017-11-18T09:56:59.030Z,145
2017-11-18T09:57:59.625Z,145
2017-11-18T09:59:00.233Z,150
2017-11-18T10:00:00.835Z,155
2017-11-18T10:01:01.435Z,150
2017-11-18T10:02:02.038Z,155
2017-11-18T10:03:02.637Z,155
2017-11-18T10:04:03.237Z,150
2017-11-18T10:05:03.852Z,145
2017-11-18T10:06:04.474Z,145
2017-11-18T10:07:05.074Z,150
2017-11-18T10:08:05.678Z,145
2017-11-18T10:09:06.276Z,145
2017-11-18T10:10:06.884Z,150
2017-11-18T10:11:07.481Z,150
2017-11-18T10:12:08.081Z,140
2017-11-18T10:13:08.691Z,145
2017-11-18T10:14:09.287Z,145
2017-11-18T10:15:09.905Z,140
2017-11-18T10:16:10.493Z,130
2017-11-18T10:17:11.100Z,130
2017-11-18T10:18:11.695Z,130
2017-11-18T10:19:12.299Z,140
2017-11-18T10:20:12.899Z,145
2017-11-18T10:21:13.495Z,145
2017-11-18T10:22:14.094Z,140
2017-11-18T10:23:14.700Z,160
2017-11-18T10:24:15.312Z,160
2017-11-18T10:25:15.914Z,150
2017-11-18T10:26:16.522Z,135
2017-11-18T10:27:17.115Z,140
2017-11-18T10:28:17.718Z,140
2017-11-18T10:29:18.325Z,140
2017-11-18T10:30:18.929Z,135
2017-11-18T10:31:19.544Z,140
2017-11-18T10:32:20.149Z,140
2017-11-18T10:33:20.753Z,125
2017-11-18T10:34:21.359Z,125
2017-11-18T10:35:21.971Z,135
2017-11-18T10:36:22.577Z,150
2017-11-18T10:37:23.185Z,140
2017-11-18T10:38:23.796Z,130
2017-11-18T10:39:24.408Z,130
2017-11-18T10:40:25.018Z,140
2017-11-18T10:41:25.613Z,145
2017-11-18T10:42:26.223Z,150
2017-11-18T10:43:26.828Z,155
2017-11-18T10:44:27.441Z,145
2017-11-18T10:45:28.047Z,145
2017-11-18T10:46:28.652Z,145
2017-11-18T10:47:29.263Z,155
2017-11-18T10:48:29.892Z,160
2017-11-18T10:49:30.475Z,165
2017-11-18T10:50:31.101Z,165
2017-11-18T10:51:31.700Z,165
2017-11-18T10:52:32.312Z,170
2017-11-18T10:53:32.927Z,175
2017-11-18T10:54:33.540Z,180
2017-11-18T10:55:34.137Z,190
2017-11-18T10:56:34.737Z,185
2017-11-18T10:57:35.344Z,195
2017-11-18T10:58:35.964Z,190
2017-11-18T10:59:36.559Z,180
2017-11-18T11:00:37.164Z,175
2017-11-18T11:01:37.780Z,190
2017-11-18T11:02:38.364Z,205
2017-11-18T11:03:38.972Z,200
2017-11-18T11:04:39.569Z,205
2017-11-18T11:05:40.176Z,210
2017-11-18T11:06:40.787Z,210
2017-11-18T11:07:41.384Z,215
2017-11-18T11:08:41.995Z,220
2017-11-18T11:09:42.594Z,205
2017-11-18T11:10:43.186Z,210
2017-11-18T11:11:43.795Z,190
2017-11-18T11:12:44.403Z,185
2017-11-18T11:13:45.017Z,190
2017-11-18T11:14:45.621Z,225
2017-11-18T11:15:46.212Z,230
2017-11-18T11:16:46.812Z,205
2017-11-18T11:17:47.423Z,180
2017-11-18T11:18:48.023Z,195
2017-11-18T11:19:48.649Z,200
2017-11-18T11:20:49.212Z,195
2017-11-18T11:21:49.834Z,195
2017-11-18T11:22:50.434Z,180
2017-11-18T11:23:51.045Z,175
2017-11-18T11:24:51.648Z,190
2017-11-18T11:25:52.244Z,225
2017-11-18T11:26:52.854Z,250
2017-11-18T11:27:53.457Z,295
2017-11-18T11:28:54.067Z,360
2017-11-18T11:29:54.678Z,420
2017-11-18T11:30:55.292Z,445
2017-11-18T11:31:55.923Z,475
2017-11-18T11:32:56.513Z,480
2017-11-18T11:33:57.129Z,435
2017-11-18T11:34:57.738Z,425
2017-11-18T11:35:58.348Z,400
2017-11-18T11:36:58.962Z,385
2017-11-18T11:37:59.566Z,400
2017-11-18T11:39:00.174Z,410
2017-11-18T11:40:00.792Z,405
2017-11-18T11:41:01.397Z,390
2017-11-18T11:42:02.011Z,365
2017-11-18T11:43:02.620Z,375
2017-11-18T11:44:03.229Z,360
2017-11-18T11:45:03.837Z,330
2017-11-18T11:46:04.439Z,380
2017-11-18T11:47:05.038Z,380
2017-11-18T11:48:05.665Z,345
2017-11-18T11:49:06.258Z,355
2017-11-18T11:50:06.866Z,400
2017-11-18T11:51:07.474Z,410
2017-11-18T11:52:08.084Z,415
2017-11-18T11:53:08.692Z,410
2017-11-18T11:54:09.295Z,405
2017-11-18T11:55:09.897Z,400
2017-11-18T11:56:10.503Z,410
2017-11-18T11:57:11.126Z,425
2017-11-18T11:58:11.725Z,455
2017-11-18T11:59:12.335Z,480
2017-11-18T12:00:12.933Z,520
2017-11-18T12:01:13.543Z,565
2017-11-18T12:02:14.164Z,570
2017-11-18T12:03:14.774Z,535
2017-11-18T12:04:15.398Z,495
2017-11-18T12:05:16.005Z,570
2017-11-18T12:06:16.617Z,565
2017-11-18T12:07:17.217Z,555
2017-11-18T12:08:17.833Z,565
2017-11-18T12:09:18.446Z,560
2017-11-18T12:10:19.060Z,545
2017-11-18T12:11:19.668Z,520
2017-11-18T12:12:20.277Z,520
2017-11-18T12:13:20.885Z,490
2017-11-18T12:14:21.486Z,435
2017-11-18T12:15:22.100Z,445
2017-11-18T12:16:22.695Z,445
2017-11-18T12:17:23.311Z,455
2017-11-18T12:18:23.928Z,455
2017-11-18T12:19:24.533Z,460
2017-11-18T12:20:25.147Z,440
2017-11-18T12:21:25.757Z,380
2017-11-18T12:22:26.359Z,355
2017-11-18T12:23:26.969Z,390
2017-11-18T12:24:27.593Z,410
2017-11-18T12:25:28.195Z,470
2017-11-18T12:26:28.822Z,510
2017-11-18T12:27:29.415Z,515
2017-11-18T12:28:30.027Z,525
2017-11-18T12:29:30.645Z,530
2017-11-18T12:30:31.232Z,460
2017-11-18T12:31:31.854Z,435
2017-11-18T12:32:32.462Z,450
2017-11-18T12:33:33.067Z,470
2017-11-18T12:34:33.664Z,430
2017-11-18T12:35:34.277Z,430
2017-11-18T12:36:34.878Z,430
2017-11-18T12:37:35.489Z,420
2017-11-18T12:38:36.082Z,415
2017-11-18T12:39:36.696Z,385
2017-11-18T12:40:37.329Z,375
2017-11-18T12:41:37.912Z,415
2017-11-18T12:42:38.530Z,395
2017-11-18T12:43:39.131Z,445
2017-11-18T12:44:39.753Z,470
2017-11-18T12:45:40.356Z,455
2017-11-18T12:46:40.973Z,430
2017-11-18T12:47:41.575Z,460
2017-11-18T12:48:42.194Z,485
2017-11-18T12:49:42.800Z,425
2017-11-18T12:50:43.404Z,360
2017-11-18T12:51:44.003Z,280
2017-11-18T12:52:44.620Z,260
2017-11-18T12:53:45.212Z,285
2017-11-18T12:54:45.815Z,320
2017-11-18T12:55:46.429Z,360
2017-11-18T12:56:47.031Z,405
2017-11-18T12:57:47.645Z,475
2017-11-18T12:58:48.256Z,575
2017-11-18T12:59:48.866Z,605
2017-11-18T13:00:49.476Z,600
2017-11-18T13:01:50.083Z,595
2017-11-18T13:02:50.692Z,540
2017-11-18T13:03:51.306Z,550
2017-11-18T13:04:51.912Z,535
2017-11-18T13:05:52.527Z,470
2017-11-18T13:06:53.141Z,400
2017-11-18T13:07:53.745Z,335
2017-11-18T13:08:54.352Z,305
2017-11-18T13:09:54.996Z,365
2017-11-18T13:10:55.664Z,360
2017-11-18T13:11:56.305Z,320
2017-11-18T13:12:56.974Z,270
2017-11-18T13:13:57.584Z,270
2017-11-18T13:14:58.215Z,300
2017-11-18T13:15:58.817Z,310
2017-11-18T13:16:59.413Z,300
2017-11-18T13:18:00.019Z,305
2017-11-18T13:19:00.620Z,325
2017-11-18T13:20:01.217Z,350
2017-11-18T13:21:01.828Z,310
2017-11-18T13:22:02.439Z,245
2017-11-18T13:23:03.053Z,195
2017-11-18T13:24:03.656Z,165
2017-11-18T13:25:04.253Z,145
2017-11-18T13:26:04.892Z,155
2017-11-18T13:27:05.483Z,145
2017-11-18T13:28:06.083Z,145
2017-11-18T13:29:06.696Z,165
2017-11-18T13:30:07.343Z,200
2017-11-18T13:31:08.034Z,215
2017-11-18T13:32:08.716Z,250
2017-11-18T13:33:09.293Z,275
2017-11-18T13:34:09.905Z,285
2017-11-18T13:35:10.500Z,280
2017-11-18T13:36:11.099Z,245
2017-11-18T13:37:11.700Z,220
2017-11-18T13:38:12.291Z,210
2017-11-18T13:39:12.889Z,215
2017-11-18T13:40:13.572Z,205
2017-11-18T13:41:14.134Z,210
2017-11-18T13:42:14.735Z,210
2017-11-18T13:43:15.331Z,205
2017-11-18T13:44:15.928Z,205
2017-11-18T13:45:16.528Z,200
2017-11-18T13:46:17.172Z,200
2017-11-18T13:47:17.762Z,195
2017-11-18T13:48:18.379Z,195
2017-11-18T13:49:18.981Z,190
2017-11-18T13:50:19.611Z,190
2017-11-18T13:51:20.206Z,185
2017-11-18T13:52:20.797Z,185
2017-11-18T13:53:21.409Z,185
2017-11-18T13:54:22.006Z,185
2017-11-18T13:55:22.615Z,190
2017-11-18T13:56:23.212Z,190
2017-11-18T13:57:23.815Z,195
2017-11-18T13:58:24.437Z,210
2017-11-18T13:59:25.043Z,235
2017-11-18T14:00:25.735Z,280
2017-11-18T14:01:26.320Z,310
2017-11-18T14:02:26.936Z,330
2017-11-18T14:03:27.540Z,335
2017-11-18T14:04:28.148Z,325
2017-11-18T14:05:28.756Z,305
2017-11-18T14:06:29.357Z,250
2017-11-18T14:07:29.959Z,210
2017-11-18T14:08:30.565Z,195
2017-11-18T14:09:31.184Z,190
2017-11-18T14:10:31.801Z,185
2017-11-18T14:11:32.426Z,175
2017-11-18T14:12:33.046Z,170
2017-11-18T14:13:33.653Z,165
2017-11-18T14:14:34.266Z,160
2017-11-18T14:15:34.858Z,160
2017-11-18T14:16:35.474Z,160
2017-11-18T14:17:36.085Z,155
2017-11-18T14:18:36.685Z,155
2017-11-18T14:19:37.293Z,150
2017-11-18T14:20:37.884Z,170
2017-11-18T14:21:38.495Z,185
2017-11-18T14:22:39.121Z,185
2017-11-18T14:23:39.711Z,180
2017-11-18T14:24:40.313Z,160
2017-11-18T14:25:40.907Z,145